createdAt,value
2019-01-31T00:00:54.462Z,36.10
2019-01-31T00:04:55.369Z,36.37
2019-01-31T00:08:46.447Z,36.68
2019-01-31T00:12:57.854Z,36.30
2019-01-31T00:16:44.062Z,36.30
2019-01-31T00:20:22.301Z,36.36
2019-01-31T00:23:57.865Z,36.42
2019-01-31T00:27:29.749Z,36.83
2019-01-31T00:31:14.750Z,36.59
2019-01-31T00:34:31.677Z,36.19
2019-01-31T00:37:12.938Z,36.59
2019-01-31T00:41:03.301Z,36.26
2019-01-31T00:44:15.697Z,35.96
2019-01-31T00:47:15.683Z,36.17
2019-01-31T00:50:17.410Z,36.16
2019-01-31T00:53:44.725Z,36.65
2019-01-31T00:56:51.258Z,36.53
2019-01-31T01:00:18.349Z,36.73
2019-01-31T01:03:57.713Z,36.78
2019-01-31T01:07:00.437Z,35.94
2019-01-31T01:10:22.300Z,36.53
2019-01-31T01:13:38.776Z,36.41
2019-01-31T01:16:52.639Z,37.09
2019-01-31T01:20:13.474Z,36.30
2019-01-31T01:23:42.730Z,36.30
2019-01-31T01:27:09.280Z,36.82
2019-01-31T01:30:56.784Z,36.42
2019-01-31T01:34:14.617Z,36.68
2019-01-31T01:37:52.377Z,36.55
2019-01-31T01:41:42.778Z,36.55
2019-01-31T01:45:00.673Z,36.67
2019-01-31T01:48:04.777Z,36.87
2019-01-31T01:51:33.718Z,36.72
2019-01-31T01:55:16.638Z,36.63
2019-01-31T01:58:35.758Z,35.86
2019-01-31T02:01:25.618Z,35.86
2019-01-31T02:04:46.776Z,36.59
2019-01-31T02:07:59.432Z,36.59
2019-01-31T02:11:35.312Z,37.12
2019-01-31T02:14:30.716Z,36.19
2019-01-31T02:17:42.289Z,36.44
2019-01-31T02:21:34.405Z,36.80
2019-01-31T02:24:59.274Z,36.93
2019-01-31T02:28:39.314Z,36.64
2019-01-31T02:32:06.780Z,36.55
2019-01-31T02:35:01.612Z,36.10
2019-01-31T02:38:26.310Z,36.63
2019-01-31T02:41:55.322Z,36.63
2019-01-31T02:45:36.506Z,36.27
2019-01-31T02:48:54.320Z,36.39
2019-01-31T02:52:59.805Z,35.95
2019-01-31T02:57:02.664Z,36.11
2019-01-31T03:01:16.015Z,36.48
2019-01-31T03:04:48.324Z,36.92
2019-01-31T03:08:22.313Z,37.04
2019-01-31T03:11:24.316Z,36.67
2019-01-31T03:14:47.887Z,37.26
2019-01-31T03:18:43.785Z,36.90
2019-01-31T03:22:46.766Z,36.51
2019-01-31T03:26:12.436Z,36.50
2019-01-31T03:29:51.485Z,36.95
2019-01-31T03:32:51.061Z,37.23
2019-01-31T03:36:39.821Z,37.14
2019-01-31T03:40:29.319Z,37.13
2019-01-31T03:43:56.763Z,37.06
2019-01-31T03:47:16.326Z,36.93
2019-01-31T03:50:51.773Z,37.28
2019-01-31T03:54:14.645Z,36.97
2019-01-31T03:58:10.390Z,36.96
2019-01-31T04:02:13.314Z,36.96
2019-01-31T04:05:42.300Z,36.25
2019-01-31T04:08:13.810Z,36.61
2019-01-31T04:10:45.617Z,36.73
2019-01-31T04:13:17.346Z,36.98
2019-01-31T04:15:49.380Z,36.98
2019-01-31T04:18:21.062Z,36.90
2019-01-31T04:20:52.753Z,36.69
2019-01-31T04:23:23.449Z,36.98
2019-01-31T04:25:55.314Z,37.00
2019-01-31T04:28:26.877Z,36.80
2019-01-31T04:30:58.437Z,37.18
2019-01-31T04:33:30.290Z,36.97
2019-01-31T04:36:01.874Z,37.17
2019-01-31T04:38:33.761Z,36.93
2019-01-31T04:41:04.457Z,37.02
2019-01-31T04:43:36.322Z,37.19
2019-01-31T04:46:07.928Z,37.12
2019-01-31T04:48:39.782Z,36.92
2019-01-31T04:51:10.655Z,36.93
2019-01-31T04:53:42.347Z,37.29
2019-01-31T04:56:14.075Z,37.29
2019-01-31T04:58:45.891Z,37.18
2019-01-31T05:01:17.774Z,37.21
2019-01-31T05:03:48.525Z,37.44
2019-01-31T05:06:20.321Z,37.21
2019-01-31T05:08:51.869Z,37.13
2019-01-31T05:13:54.073Z,37.16
2019-01-31T05:16:26.317Z,37.29
2019-01-31T05:18:58.324Z,37.38
2019-01-31T05:21:30.333Z,36.99
2019-01-31T05:24:02.809Z,37.12
2019-01-31T05:26:34.893Z,37.43
2019-01-31T05:29:06.749Z,36.95
2019-01-31T05:31:37.495Z,36.85
2019-01-31T05:34:09.314Z,36.63
2019-01-31T05:39:26.318Z,36.64
2019-01-31T05:41:57.863Z,36.65
2019-01-31T05:44:29.398Z,36.05
2019-01-31T05:47:01.076Z,36.82
2019-01-31T05:49:33.277Z,36.17
2019-01-31T05:52:04.911Z,36.66
2019-01-31T05:54:36.732Z,37.17
2019-01-31T05:57:07.750Z,37.53
2019-01-31T05:59:38.488Z,37.37
2019-01-31T06:02:10.306Z,37.00
2019-01-31T06:04:41.873Z,37.26
2019-01-31T06:07:14.025Z,37.56
2019-01-31T06:09:46.333Z,37.12
2019-01-31T06:12:18.311Z,36.54
2019-01-31T06:14:49.874Z,37.11
2019-01-31T06:17:21.397Z,37.03
2019-01-31T06:19:53.059Z,36.93
2019-01-31T06:22:25.208Z,37.19
2019-01-31T06:24:57.065Z,37.90
2019-01-31T06:27:28.885Z,37.43
2019-01-31T06:30:00.786Z,37.55
2019-01-31T06:32:31.516Z,37.65
2019-01-31T06:35:03.315Z,37.67
2019-01-31T06:37:34.883Z,37.79
2019-01-31T06:40:08.309Z,37.69
2019-01-31T06:42:39.774Z,37.69
2019-01-31T06:45:16.460Z,37.65
2019-01-31T06:47:48.314Z,38.12
2019-01-31T06:50:19.881Z,37.72
2019-01-31T06:52:51.733Z,37.80
2019-01-31T06:55:22.481Z,37.54
2019-01-31T06:57:54.313Z,37.98
2019-01-31T07:00:26.773Z,37.20
2019-01-31T07:02:57.475Z,37.84
2019-01-31T07:05:29.309Z,37.57
2019-01-31T07:08:00.880Z,37.86
2019-01-31T07:10:32.773Z,37.59
2019-01-31T07:13:05.318Z,37.95
2019-01-31T07:15:36.859Z,37.72
2019-01-31T07:18:08.754Z,37.59
2019-01-31T07:20:40.373Z,37.89
2019-01-31T07:23:12.061Z,37.53
2019-01-31T07:25:43.877Z,37.53
2019-01-31T07:28:15.617Z,37.54
2019-01-31T07:30:46.500Z,37.68
2019-01-31T07:33:18.313Z,36.99
2019-01-31T07:35:52.068Z,37.35
2019-01-31T07:38:23.353Z,37.53
2019-01-31T07:40:55.310Z,37.53
2019-01-31T07:43:26.841Z,36.50
2019-01-31T07:45:58.608Z,37.46
2019-01-31T07:48:30.579Z,37.67
2019-01-31T07:51:02.400Z,37.22
2019-01-31T07:53:34.028Z,37.22
2019-01-31T07:56:05.757Z,37.13
2019-01-31T07:58:36.491Z,37.08
2019-01-31T08:01:08.310Z,37.60
2019-01-31T08:03:40.764Z,37.40
2019-01-31T08:06:12.741Z,37.43
2019-01-31T08:08:43.491Z,37.02
2019-01-31T08:11:15.301Z,37.25
2019-01-31T08:13:46.812Z,36.98
2019-01-31T08:16:18.590Z,35.91
2019-01-31T08:18:50.326Z,37.31
2019-01-31T08:21:22.067Z,37.31
2019-01-31T08:23:53.752Z,37.36
2019-01-31T08:26:24.659Z,36.86
2019-01-31T08:28:56.374Z,37.06
2019-01-31T08:31:28.310Z,37.06
2019-01-31T08:33:59.888Z,37.13
2019-01-31T08:36:32.293Z,37.33
2019-01-31T08:39:04.327Z,37.13
2019-01-31T08:41:36.049Z,37.48
2019-01-31T08:44:07.773Z,37.04
2019-01-31T08:46:38.635Z,37.51
2019-01-31T08:49:10.647Z,37.44
2019-01-31T08:51:42.424Z,37.21
2019-01-31T08:54:14.048Z,37.21
2019-01-31T08:56:45.760Z,37.49
2019-01-31T08:59:16.724Z,37.07
2019-01-31T09:01:47.591Z,37.04
2019-01-31T09:04:18.684Z,37.55
2019-01-31T09:06:49.529Z,37.17
2019-01-31T09:09:21.307Z,37.20
2019-01-31T09:11:52.879Z,37.15
2019-01-31T09:14:24.731Z,37.24
2019-01-31T09:16:55.448Z,37.13
2019-01-31T09:19:27.301Z,37.02
2019-01-31T09:22:31.424Z,37.21
2019-01-31T09:30:10.759Z,36.72
2019-01-31T09:34:23.807Z,36.82
2019-01-31T09:38:20.037Z,37.19
2019-01-31T09:41:54.296Z,36.87
2019-01-31T09:45:44.897Z,37.38
2019-01-31T09:48:40.765Z,37.33
2019-01-31T09:52:11.639Z,37.51
2019-01-31T09:56:15.845Z,37.09
2019-01-31T09:59:32.839Z,37.09
2019-01-31T10:03:30.205Z,37.03
2019-01-31T10:06:52.529Z,37.39
2019-01-31T10:10:51.794Z,36.91
2019-01-31T10:14:27.840Z,36.87
2019-01-31T10:18:19.781Z,37.04
2019-01-31T10:21:40.832Z,37.00
2019-01-31T10:25:39.882Z,37.00
2019-01-31T10:29:04.737Z,37.38
2019-01-31T10:32:05.420Z,36.84
2019-01-31T10:35:55.249Z,37.50
2019-01-31T10:39:10.293Z,37.18
2019-01-31T10:42:48.934Z,37.03
2019-01-31T10:46:10.876Z,36.85
2019-01-31T10:49:55.049Z,36.65
2019-01-31T10:53:30.828Z,37.51
2019-01-31T10:57:44.346Z,37.05
2019-01-31T11:01:18.917Z,37.32
2019-01-31T11:05:14.314Z,37.07
2019-01-31T11:08:58.305Z,37.33
2019-01-31T11:12:27.337Z,36.91
2019-01-31T11:16:29.333Z,36.34
2019-01-31T11:20:39.327Z,36.21
2019-01-31T11:24:28.808Z,36.96
2019-01-31T11:28:17.427Z,36.86
2019-01-31T11:31:59.598Z,35.36
2019-01-31T11:35:38.754Z,36.14
2019-01-31T11:39:00.623Z,36.14
2019-01-31T11:42:31.769Z,35.83
2019-01-31T11:45:47.254Z,35.83
2019-01-31T11:49:02.748Z,35.83
2019-01-31T11:52:36.765Z,36.68
2019-01-31T11:55:23.941Z,36.33
2019-01-31T11:59:02.745Z,36.93
2019-01-31T12:01:33.591Z,36.59
2019-01-31T12:04:16.297Z,36.06
2019-01-31T12:06:47.914Z,36.06
2019-01-31T12:09:22.452Z,36.70
2019-01-31T12:11:54.413Z,36.93
2019-01-31T12:14:26.070Z,36.06
2019-01-31T12:16:57.741Z,36.83
2019-01-31T12:19:28.488Z,36.39
2019-01-31T12:22:00.309Z,36.27
2019-01-31T12:24:31.888Z,36.65
2019-01-31T12:27:03.657Z,36.15
2019-01-31T12:29:35.426Z,36.47
2019-01-31T12:32:07.302Z,36.47
2019-01-31T12:34:38.825Z,36.26
2019-01-31T12:37:10.582Z,35.53
2019-01-31T12:39:42.349Z,36.61
2019-01-31T12:42:14.062Z,36.61
2019-01-31T12:44:45.882Z,36.01
2019-01-31T12:47:17.746Z,36.16
2019-01-31T12:49:48.473Z,36.64
2019-01-31T12:52:20.333Z,36.06
2019-01-31T12:54:51.989Z,36.90
2019-01-31T12:57:23.767Z,36.61
2019-01-31T12:59:55.630Z,36.29
2019-01-31T13:02:26.608Z,34.70
2019-01-31T13:04:58.382Z,36.93
2019-01-31T13:07:30.262Z,36.93
2019-01-31T13:10:01.847Z,35.28
2019-01-31T13:12:33.711Z,35.33
2019-01-31T13:15:04.458Z,35.51
2019-01-31T13:17:36.299Z,35.31
2019-01-31T13:20:15.795Z,36.03
2019-01-31T13:22:47.406Z,35.89
2019-01-31T13:25:19.305Z,35.86
2019-01-31T13:27:51.313Z,36.10
2019-01-31T13:30:23.746Z,36.48
2019-01-31T13:32:56.022Z,36.26
2019-01-31T13:35:27.743Z,36.19
2019-01-31T13:37:58.580Z,36.30
2019-01-31T13:40:30.650Z,36.20
2019-01-31T13:43:02.376Z,36.14
2019-01-31T13:45:38.309Z,36.14
2019-01-31T13:48:16.779Z,36.02
2019-01-31T13:50:47.498Z,36.03
2019-01-31T13:53:19.313Z,36.38
2019-01-31T13:55:50.882Z,36.34
2019-01-31T13:58:22.629Z,35.84
2019-01-31T14:00:54.370Z,35.93
2019-01-31T14:03:26.325Z,35.93
2019-01-31T14:05:58.302Z,35.92
2019-01-31T14:08:29.849Z,34.15
2019-01-31T14:11:01.797Z,33.80
2019-01-31T14:13:34.310Z,33.38
2019-01-31T14:16:06.029Z,35.39
2019-01-31T14:18:38.425Z,35.75
2019-01-31T14:21:13.385Z,36.16
2019-01-31T14:23:45.606Z,35.75
2019-01-31T14:26:17.716Z,34.57
2019-01-31T14:28:48.476Z,34.57
2019-01-31T14:31:20.406Z,34.67
2019-01-31T14:33:52.308Z,34.34
2019-01-31T14:36:24.301Z,34.07
2019-01-31T14:38:55.852Z,33.89
2019-01-31T14:41:27.596Z,34.77
2019-01-31T14:43:59.318Z,33.51
2019-01-31T14:46:30.933Z,33.51
2019-01-31T14:49:04.004Z,34.13
2019-01-31T14:51:35.702Z,33.01
2019-01-31T14:54:06.628Z,33.34
2019-01-31T14:56:38.629Z,33.63
2019-01-31T14:59:10.357Z,33.76
2019-01-31T15:01:42.060Z,33.76
2019-01-31T15:04:14.309Z,31.90
2019-01-31T15:06:45.990Z,29.11
2019-01-31T15:09:17.767Z,27.81
2019-01-31T15:11:48.451Z,27.53
2019-01-31T15:14:31.207Z,26.80
2019-01-31T15:16:54.759Z,25.48
2019-01-31T15:19:25.496Z,26.01
2019-01-31T15:21:57.333Z,26.37
2019-01-31T15:24:29.441Z,26.07
2019-01-31T15:27:01.309Z,24.81
2019-01-31T15:29:32.822Z,23.64
2019-01-31T15:32:04.678Z,25.00
2019-01-31T15:34:36.509Z,24.87
2019-01-31T15:37:08.761Z,24.87
2019-01-31T15:39:39.747Z,24.92
2019-01-31T15:42:12.031Z,25.68
2019-01-31T15:44:43.824Z,25.38
2019-01-31T15:47:16.330Z,26.09
2019-01-31T15:49:48.661Z,25.68
2019-01-31T15:52:20.605Z,25.80
2019-01-31T15:54:53.094Z,25.57
2019-01-31T15:57:25.305Z,25.57
2019-01-31T15:59:58.140Z,26.38
2019-01-31T16:02:29.798Z,26.88
2019-01-31T16:05:01.847Z,26.31
2019-01-31T16:07:34.314Z,26.89
2019-01-31T16:10:05.972Z,27.15
2019-01-31T16:12:37.884Z,27.25
2019-01-31T16:15:11.705Z,27.02
2019-01-31T16:17:42.957Z,27.48
2019-01-31T16:20:15.826Z,27.83
2019-01-31T16:22:47.838Z,29.45
2019-01-31T16:25:19.859Z,29.05
2019-01-31T16:27:51.891Z,29.82
2019-01-31T16:30:24.369Z,31.90
2019-01-31T16:32:56.406Z,32.93
2019-01-31T16:35:28.799Z,31.71
2019-01-31T16:38:00.433Z,30.91
2019-01-31T16:40:32.310Z,30.66
2019-01-31T16:43:04.593Z,29.63
2019-01-31T16:45:36.718Z,27.59
2019-01-31T16:48:09.780Z,27.59
2019-01-31T16:50:41.550Z,26.50
2019-01-31T16:53:13.369Z,26.37
2019-01-31T16:55:45.020Z,26.37
2019-01-31T16:58:16.773Z,26.06
2019-01-31T17:00:48.597Z,26.27
2019-01-31T17:03:20.362Z,27.10
2019-01-31T17:05:52.314Z,27.10
2019-01-31T17:08:24.320Z,27.46
2019-01-31T17:10:56.060Z,27.39
2019-01-31T17:13:28.583Z,27.66
2019-01-31T17:15:59.610Z,27.95
2019-01-31T17:18:30.607Z,28.34
2019-01-31T17:21:02.520Z,27.89
2019-01-31T17:23:34.370Z,27.89
2019-01-31T17:26:06.305Z,29.37
2019-01-31T17:28:37.897Z,28.42
2019-01-31T17:31:09.397Z,30.22
2019-01-31T17:33:41.057Z,31.64
2019-01-31T17:36:12.740Z,31.72
2019-01-31T17:38:44.634Z,31.19
2019-01-31T17:41:16.342Z,31.50
2019-01-31T17:43:48.355Z,31.50
2019-01-31T17:46:20.337Z,31.71
2019-01-31T17:48:54.002Z,31.61
2019-01-31T17:51:25.762Z,30.98
2019-01-31T17:53:57.349Z,28.16
2019-01-31T17:56:29.074Z,27.41
2019-01-31T17:59:02.986Z,26.61
2019-01-31T18:01:34.754Z,26.37
2019-01-31T18:04:05.619Z,25.69
2019-01-31T18:06:37.338Z,25.43
2019-01-31T18:09:11.710Z,25.43
2019-01-31T18:11:42.598Z,25.58
2019-01-31T18:14:14.497Z,26.58
2019-01-31T18:16:45.591Z,26.58
2019-01-31T18:19:16.932Z,26.86
2019-01-31T18:21:48.731Z,26.25
2019-01-31T18:24:19.511Z,26.84
2019-01-31T18:26:51.762Z,27.40
2019-01-31T18:29:22.617Z,27.40
2019-01-31T18:31:54.337Z,27.61
2019-01-31T18:34:26.060Z,27.61
2019-01-31T18:36:58.328Z,26.65
2019-01-31T18:39:30.903Z,26.66
2019-01-31T18:42:02.772Z,26.44
2019-01-31T18:44:33.604Z,26.49
2019-01-31T18:47:05.816Z,26.13
2019-01-31T18:49:37.804Z,26.13
2019-01-31T18:54:40.001Z,27.25
2019-01-31T18:57:12.845Z,27.45
2019-01-31T18:59:44.813Z,27.28
2019-01-31T19:02:16.427Z,27.71
2019-01-31T19:04:48.835Z,27.82
2019-01-31T19:07:20.659Z,27.88
2019-01-31T19:09:52.772Z,28.09
2019-01-31T19:12:23.488Z,28.09
2019-01-31T19:14:55.271Z,28.26
2019-01-31T19:17:26.895Z,29.12
2019-01-31T19:19:58.465Z,29.47
2019-01-31T19:22:30.272Z,32.34
2019-01-31T19:25:02.300Z,31.65
2019-01-31T19:27:34.058Z,31.91
2019-01-31T19:30:08.308Z,32.52
2019-01-31T19:32:39.854Z,32.62
2019-01-31T19:35:11.760Z,33.19
2019-01-31T19:37:42.476Z,32.74
2019-01-31T19:40:19.296Z,32.80
2019-01-31T19:42:51.410Z,33.25
2019-01-31T19:45:37.825Z,33.33
2019-01-31T19:48:09.778Z,34.13
2019-01-31T19:50:43.629Z,33.28
2019-01-31T19:53:17.358Z,33.69
2019-01-31T19:55:49.303Z,33.68
2019-01-31T19:58:22.058Z,34.10
2019-01-31T20:00:55.052Z,34.46
2019-01-31T20:03:28.374Z,32.42
2019-01-31T20:06:00.871Z,33.20
2019-01-31T20:08:34.952Z,34.45
2019-01-31T20:11:07.914Z,34.16
2019-01-31T20:13:40.851Z,33.85
2019-01-31T20:16:16.094Z,34.86
2019-01-31T20:18:46.741Z,34.74
2019-01-31T20:21:18.077Z,35.52
2019-01-31T20:23:50.445Z,34.88
2019-01-31T20:26:23.320Z,34.62
2019-01-31T20:28:56.304Z,34.61
2019-01-31T20:31:27.860Z,34.36
2019-01-31T20:33:59.734Z,34.58
2019-01-31T20:36:30.820Z,34.77
2019-01-31T20:39:03.948Z,34.65
2019-01-31T20:41:35.778Z,35.28
2019-01-31T20:44:07.108Z,35.22
2019-01-31T20:46:40.245Z,35.86
2019-01-31T20:49:12.298Z,35.87
2019-01-31T20:51:44.304Z,35.87
2019-01-31T20:54:15.951Z,35.75
2019-01-31T20:56:47.835Z,35.45
2019-01-31T20:59:22.294Z,35.37
2019-01-31T21:01:54.264Z,35.37
2019-01-31T21:04:26.029Z,34.99
2019-01-31T21:06:57.794Z,35.35
2019-01-31T21:09:29.781Z,34.68
2019-01-31T21:12:00.585Z,35.40
2019-01-31T21:14:32.358Z,35.79
2019-01-31T21:17:04.056Z,35.79
2019-01-31T21:19:36.493Z,35.89
2019-01-31T21:22:08.298Z,35.86
2019-01-31T21:24:40.356Z,35.96
2019-01-31T21:27:15.578Z,35.99
2019-01-31T21:29:47.769Z,35.75
2019-01-31T21:32:18.541Z,36.10
2019-01-31T21:34:50.746Z,35.91
2019-01-31T21:37:21.617Z,35.91
2019-01-31T21:39:53.981Z,35.01
2019-01-31T21:42:25.908Z,35.01
2019-01-31T21:44:57.794Z,35.35
2019-01-31T21:47:29.838Z,35.29
2019-01-31T21:50:01.715Z,35.53
2019-01-31T21:52:33.886Z,35.64
2019-01-31T21:55:06.315Z,36.17
2019-01-31T21:57:38.773Z,35.85
2019-01-31T22:00:17.057Z,35.76
2019-01-31T22:02:49.301Z,36.18
2019-01-31T22:05:21.057Z,36.07
2019-01-31T22:07:53.347Z,36.17
2019-01-31T22:10:25.707Z,36.59
2019-01-31T22:12:58.005Z,36.44
2019-01-31T22:15:32.774Z,36.32
2019-01-31T22:18:03.560Z,35.97
2019-01-31T22:20:35.391Z,36.08
2019-01-31T22:23:08.310Z,36.08
2019-01-31T22:25:40.549Z,35.75
2019-01-31T22:28:12.863Z,36.41
2019-01-31T22:30:46.058Z,36.61
2019-01-31T22:33:18.474Z,36.02
2019-01-31T22:35:51.342Z,36.71
2019-01-31T22:38:23.404Z,36.16
2019-01-31T22:40:55.779Z,36.29
2019-01-31T22:43:26.653Z,36.52
2019-01-31T22:45:59.308Z,36.68
2019-01-31T22:48:30.835Z,36.68
2019-01-31T22:51:02.609Z,36.25
2019-01-31T22:53:34.466Z,36.11
2019-01-31T22:56:09.792Z,36.11
2019-01-31T22:58:42.061Z,36.87
2019-01-31T23:01:37.774Z,36.54
2019-01-31T23:04:09.749Z,36.15
2019-01-31T23:06:40.459Z,35.69
2019-01-31T23:09:14.539Z,35.78
2019-01-31T23:11:46.309Z,36.09
2019-01-31T23:14:17.878Z,35.01
2019-01-31T23:16:49.756Z,35.26
2019-01-31T23:19:20.478Z,35.98
2019-01-31T23:21:52.305Z,36.25
2019-01-31T23:24:24.297Z,35.92
2019-01-31T23:26:55.844Z,35.96
2019-01-31T23:29:27.411Z,36.42
2019-01-31T23:31:59.374Z,35.64
2019-01-31T23:34:31.779Z,36.36
2019-01-31T23:37:02.499Z,35.72
2019-01-31T23:39:34.318Z,36.26
2019-01-31T23:42:06.034Z,36.07
2019-01-31T23:44:37.717Z,35.30
2019-01-31T23:47:08.502Z,35.89
2019-01-31T23:49:40.783Z,35.45
2019-01-31T23:52:12.421Z,35.00
2019-01-31T23:54:44.044Z,35.44
2019-01-31T23:57:15.788Z,33.29
2019-01-31T23:59:46.499Z,35.03
